Latest Coastal Weather Observations for Bougainville Reef

IDQ60701

Issued at 2:32 am EST Friday 5 March 2021 (issued every 10 minutes, with the page automatically refreshed every 10 minutes)

About coastal observations | Map of coastal stations | Coastal observations for QLD | Marine services | Other Formats
Station Details ID: 200840 Name: BOUGAINVILLE REEF Lat: -15.49 Lon: 147.12 Height: 0.0 m
Data from the previous 72 hours. | See also: Recent months for locations in Queensland
Date/Time
EST
Wind Sea
Height
m
Swell Vis
km
Cloud Weather Temp
°C
Press
MSL
hPa
Rain since
9am
mm
Dir  Spd
kts
Gust
kts
Height
m
Period
s
Dir
05/02:30am S 17 19 - - - - - - - 27.5 1004.0 -
05/02:00am S 22 25 - - - - - - - 27.4 1003.9 -
05/01:30am SSW 22 25 - - - - - - - 27.8 1003.7 -
05/01:00am S 24 26 - - - - - - - 27.8 1003.3 -
05/12:30am S 22 26 - - - - - - - 27.9 1003.4 -
05/12:00am SSW 23 28 - - - - - - - 28.0 1003.5 -
 
Date/Time
EST
Wind Sea
Height
m
Swell Vis
km
Cloud Weather Temp
°C
Press
MSL
hPa
Rain since
9am
mm
Dir  Spd
kts
Gust
kts
Height
m
Period
s
Dir
04/11:30pm SSW 23 29 - - - - - - - 28.1 1003.6 -
04/11:00pm SSW 25 31 - - - - - - - 28.2 1003.4 -
04/10:30pm SSW 24 31 - - - - - - - 28.0 1003.1 -
04/10:00pm SSW 27 31 - - - - - - - 28.1 1002.9 -
04/09:30pm SSW 24 30 - - - - - - - 28.1 1003.1 -
04/09:00pm SSW 24 29 - - - - - - - 28.2 1002.8 -
04/08:30pm SSW 24 30 - - - - - - - 28.1 1002.3 -
04/08:00pm SSW 28 34 - - - - - - - 28.2 1001.8 -
04/07:30pm SSW 29 36 - - - - - - - 27.5 1001.4 -
04/07:00pm SSW 32 39 - - - - - - - 26.9 1001.1 -
04/06:40pm SSW 33 43 - - - - - - - 27.5 1000.9 -
04/06:30pm SSW 33 39 - - - - - - - 28.2 1000.2 -
04/06:00pm SW 34 40 - - - - - - - 28.1 999.4 -
04/05:46pm SW 33 43 - - - - - - - 28.0 999.0 -
04/05:30pm SW 35 42 - - - - - - - 27.9 998.6 -
04/05:00pm SW 30 35 - - - - - - - 26.1 998.5 -
04/04:30pm SSW 35 42 - - - - - - - 24.6 998.1 -
04/04:00pm SSW 41 54 - - - - - - - 24.4 997.8 -
04/03:32pm SSW 36 46 - - - - - - - 26.2 - -
04/03:31pm SSW 36 46 - - - - - - - 26.1 996.6 -
04/03:30pm SSW 36 45 - - - - - - - 26.2 996.7 -
04/03:06pm SSW 37 47 - - - - - - - 24.8 996.8 -
04/03:00pm SSW 38 45 - - - - - - - 25.0 997.0 -
04/02:30pm SSW 34 44 - - - - - - - 27.6 996.5 -
04/02:29pm SSW 35 45 - - - - - - - 27.6 996.6 -
04/02:28pm SSW 35 45 - - - - - - - 27.7 - -
04/02:00pm SSW 39 47 - - - - - - - 27.1 996.3 -
04/01:34pm SSW 35 45 - - - - - - - 27.9 995.8 -
04/01:30pm SSW 35 44 - - - - - - - 28.0 996.0 -
04/01:00pm SSW 35 45 - - - - - - - 27.8 996.2 -
04/12:32pm SSW 32 43 - - - - - - - 27.7 996.4 -
04/12:30pm SSW 32 40 - - - - - - - 27.6 996.2 -
04/12:00pm SSW 35 42 - - - - - - - 27.7 996.8 -
04/11:57am SSW 37 47 - - - - - - - 27.5 - -
04/11:54am SSW 37 47 - - - - - - - 27.5 997.2 -
04/11:30am SSW 33 40 - - - - - - - 27.3 997.0 -
04/11:03am SSW 35 45 - - - - - - - 27.0 - -
04/11:00am SSW 35 45 - - - - - - - 27.0 996.8 -
04/10:32am SSW 37 47 - - - - - - - 26.7 - -
04/10:30am SW 37 47 - - - - - - - 26.7 996.6 -
04/10:04am SSW 38 49 - - - - - - - 27.2 - -
04/10:01am SSW 38 49 - - - - - - - 27.2 996.7 -
04/10:00am SSW 38 47 - - - - - - - 27.2 996.8 -
04/09:40am SSW 37 47 - - - - - - - 27.8 - -
04/09:37am SSW 37 47 - - - - - - - 27.8 996.6 -
04/09:30am SSW 37 46 - - - - - - - 27.7 996.4 -
04/09:19am SSW 37 47 - - - - - - - 27.4 - -
04/09:16am SSW 37 47 - - - - - - - 27.4 996.6 -
04/09:00am SSW 39 46 - - - - - - - 27.3 996.2 -
04/08:44am SSW 37 47 - - - - - - - 27.4 - -
04/08:41am SSW 37 47 - - - - - - - 27.4 996.3 -
04/08:30am SSW 38 45 - - - - - - - 27.5 996.2 -
04/08:13am S 37 47 - - - - - - - 27.8 - -
04/08:10am S 37 47 - - - - - - - 27.8 995.9 -
04/08:00am SSW 34 42 - - - - - - - 27.8 995.9 -
04/07:30am SSW 36 44 - - - - - - - 27.6 995.2 -
04/07:15am SSW 36 46 - - - - - - - 27.0 - -
04/07:12am SSW 36 46 - - - - - - - 27.0 994.9 -
04/07:00am SSW 35 43 - - - - - - - 27.4 994.8 -
04/06:30am S 39 47 - - - - - - - 27.5 994.6 -
04/06:06am S 36 46 - - - - - - - 27.3 - -
04/06:03am S 36 46 - - - - - - - 27.3 993.9 -
04/06:00am S 37 46 - - - - - - - 27.5 994.0 -
04/05:30am S 36 43 - - - - - - - 27.5 993.8 -
04/05:00am S 37 43 - - - - - - - 27.3 993.2 -
04/04:34am S 35 45 - - - - - - - 27.4 993.0 -
04/04:30am S 35 43 - - - - - - - 27.2 992.9 -
04/04:00am S 38 49 - - - - - - - 27.4 993.0 -
04/03:30am S 39 51 - - - - - - - 27.1 993.1 -
04/03:14am S 37 50 - - - - - - - 26.6 - -
04/03:11am S 37 50 - - - - - - - 26.6 993.1 -
04/03:00am S 38 46 - - - - - - - 26.2 993.2 -
04/02:30am S 38 51 - - - - - - - 26.7 993.4 -
04/02:27am S 38 51 - - - - - - - 27.2 993.4 -
04/02:00am S 34 41 - - - - - - - 27.4 993.5 -
04/01:30am S 36 46 - - - - - - - 26.4 993.3 -
04/01:00am S 37 49 - - - - - - - 26.1 993.6 -
04/12:30am SSE 37 48 - - - - - - - 26.3 994.1 -
04/12:00am S 36 46 - - - - - - - 27.1 994.6 -
 
Date/Time
EST
Wind Sea
Height
m
Swell Vis
km
Cloud Weather Temp
°C
Press
MSL
hPa
Rain since
9am
mm
Dir  Spd
kts
Gust
kts
Height
m
Period
s
Dir
03/11:58pm S 36 46 - - - - - - - 27.2 - -
03/11:56pm S 35 46 - - - - - - - 27.2 994.5 -
03/11:30pm S 33 41 - - - - - - - 27.4 994.8 -
03/11:00pm SSE 37 44 - - - - - - - 26.9 995.5 -
03/10:31pm SSE 41 51 - - - - - - - 25.9 995.6 -
03/10:30pm SSE 42 51 - - - - - - - 25.7 995.5 -
03/10:20pm SSE 40 50 - - - - - - - 26.4 - -
03/10:18pm SSE 40 50 - - - - - - - 26.4 995.6 -
03/10:00pm SSE 37 43 - - - - - - - 26.7 995.4 -
03/09:46pm SSE 39 49 - - - - - - - 27.5 995.6 -
03/09:35pm SSE 39 49 - - - - - - - 27.5 - -
03/09:30pm SSE 39 46 - - - - - - - 27.6 995.4 -
03/09:01pm S 42 52 - - - - - - - 27.5 - -
03/09:00pm SSE 42 52 - - - - - - - 27.5 994.8 -
03/08:31pm SSE 44 54 - - - - - - - 27.4 994.9 -
03/08:30pm SSE 44 53 - - - - - - - 27.3 995.0 -
03/08:00pm S 45 56 - - - - - - - 27.3 994.6 -
03/07:30pm SSE 43 57 - - - - - - - 27.3 994.3 -
03/07:09pm S 41 60 - - - - - - - 27.3 - -
03/07:07pm SSE 41 60 - - - - - - - 27.3 994.1 -
03/07:00pm SSE 41 50 - - - - - - - 27.5 994.0 -
03/06:33pm SSE 37 47 - - - - - - - 27.0 - -
03/06:30pm SSE 37 47 - - - - - - - 26.8 993.9 -
03/06:02pm SSE 41 51 - - - - - - - 27.0 - -
03/06:00pm SSE 41 51 - - - - - - - 27.0 993.2 -
03/05:43pm SSE 41 52 - - - - - - - 25.2 - -
03/05:41pm SSE 41 52 - - - - - - - 25.2 993.5 -
03/05:30pm SSE 42 50 - - - - - - - 25.2 993.4 -
03/05:00pm SSE 45 56 - - - - - - - 25.1 993.1 -
03/04:32pm SSE 40 53 - - - - - - - 25.4 - -
03/04:30pm SSE 40 53 - - - - - - - 25.4 992.6 -
03/04:20pm SSE 41 55 - - - - - - - 25.5 992.8 -
03/04:19pm SSE 41 55 - - - - - - - 25.7 992.8 -
03/04:00pm SSE 46 57 - - - - - - - 24.9 992.6 -
03/03:30pm S 43 55 - - - - - - - 26.1 992.4 -
03/03:07pm S 41 52 - - - - - - - 27.8 - -
03/03:05pm S 41 52 - - - - - - - 27.8 992.3 -
03/03:00pm S 41 49 - - - - - - - 27.6 992.1 -
03/02:35pm S 42 52 - - - - - - - 27.0 993.1 -
03/02:30pm S 43 52 - - - - - - - 27.6 993.0 -
03/02:02pm S 42 52 - - - - - - - 27.4 - -
03/02:00pm S 42 52 - - - - - - - 27.4 993.4 -
03/01:30pm S 39 49 - - - - - - - 27.4 993.7 -
03/01:16pm S 39 50 - - - - - - - 27.3 - -
03/01:14pm S 39 50 - - - - - - - 27.3 994.0 -
03/01:00pm S 38 47 - - - - - - - 27.9 994.2 -
03/12:30pm S 40 53 - - - - - - - 26.7 994.8 -
03/12:16pm S 42 52 - - - - - - - 26.2 - -
03/12:14pm SSE 35 52 - - - - - - - 26.2 994.9 -
03/12:12pm SSE 34 47 - - - - - - - 26.5 995.1 -
03/12:10pm SSE 34 47 - - - - - - - 26.3 995.2 -
03/12:08pm SSE 34 47 - - - - - - - 25.9 995.4 -
03/12:05pm SSE 32 47 - - - - - - - 25.4 995.5 -
03/12:04pm SSE 31 42 - - - - - - - 26.2 - -
03/12:02pm SSE 30 42 - - - - - - - 26.2 995.7 -
03/12:00pm SSE 30 38 - - - - - - - 26.5 995.8 -
03/11:30am SSE 33 45 - - - - - - - 26.2 996.3 -
03/11:28am SSE 35 45 - - - - - - - 25.2 996.2 -
03/11:00am SSE 35 41 - - - - - - - 27.8 996.3 -
03/10:30am SSE 38 45 - - - - - - - 28.0 996.6 -
03/10:00am SSE 36 44 - - - - - - - 28.0 996.6 -
03/09:30am SSE 35 45 - - - - - - - 27.8 996.9 -
03/09:28am SSE 34 45 - - - - - - - 27.8 - -
03/09:26am SSE 34 45 - - - - - - - 27.8 996.8 -
03/09:00am SSE 34 40 - - - - - - - 27.8 996.9 -
03/08:41am SSE 37 47 - - - - - - - 26.6 - -
03/08:39am SSE 37 47 - - - - - - - 26.6 996.6 -
03/08:30am SSE 40 46 - - - - - - - 25.9 996.6 -
03/08:11am S 32 44 - - - - - - - 26.3 - -
03/08:09am S 30 43 - - - - - - - 26.4 - -
03/08:00am SSE 39 50 - - - - - - - 26.2 996.7 -
03/07:48am SSE 36 49 - - - - - - - 27.2 - -
03/07:46am SSE 36 49 - - - - - - - 27.2 996.4 -
03/07:30am SSE 36 42 - - - - - - - 27.9 996.2 -
03/07:08am S 38 48 - - - - - - - 26.5 - -
03/07:06am SSE 38 48 - - - - - - - 26.5 996.1 -
03/07:00am SSE 39 48 - - - - - - - 27.1 996.0 -
03/06:57am S 37 47 - - - - - - - 27.4 - -
03/06:30am SSE 37 47 - - - - - - - 27.5 995.7 -
03/06:01am SSE 39 49 - - - - - - - 28.3 - -
03/06:00am SSE 39 49 - - - - - - - 28.3 995.5 -
03/05:32am SSE 39 49 - - - - - - - 27.0 - -
03/05:30am SSE 39 49 - - - - - - - 27.0 995.4 -
03/05:24am SSE 38 48 - - - - - - - 27.3 - -
03/05:22am SSE 38 48 - - - - - - - 27.3 995.1 -
03/05:00am SSE 35 42 - - - - - - - 27.4 995.3 -
03/04:43am SSE 37 47 - - - - - - - 27.8 - -
03/04:41am SSE 37 47 - - - - - - - 27.8 994.9 -
03/04:30am SSE 37 43 - - - - - - - 27.7 994.9 -
03/04:15am SSE 35 45 - - - - - - - 27.9 - -
03/04:13am SSE 35 45 - - - - - - - 27.9 994.9 -
03/04:00am SSE 33 40 - - - - - - - 27.8 994.8 -
03/03:30am SSE 35 43 - - - - - - - 26.2 994.8 -
03/03:00am SSE 34 43 - - - - - - - 27.5 995.0 -
03/02:30am SSE 39 50 - - - - - - - 27.8 995.2 -
03/02:25am S 40 50 - - - - - - - 27.8 - -
03/02:23am SSE 40 50 - - - - - - - 27.8 995.0 -
03/02:00am S 40 48 - - - - - - - 27.3 995.2 -
03/01:53am S 39 49 - - - - - - - 27.8 - -
03/01:39am S 39 49 - - - - - - - 27.9 995.6 -
03/01:30am S 38 46 - - - - - - - 27.9 995.7 -
03/01:05am S 38 51 - - - - - - - 28.0 - -
03/01:03am S 38 51 - - - - - - - 28.0 995.9 -
03/01:00am S 38 46 - - - - - - - 27.7 995.9 -
03/12:30am SSE 41 50 - - - - - - - 27.5 996.2 -
03/12:01am S 39 49 - - - - - - - 27.2 - -
03/12:00am SSE 39 49 - - - - - - - 27.1 996.7 -
 
Date/Time
EST
Wind Sea
Height
m
Swell Vis
km
Cloud Weather Temp
°C
Press
MSL
hPa
Rain since
9am
mm
Dir  Spd
kts
Gust
kts
Height
m
Period
s
Dir
02/11:31pm S 41 51 - - - - - - - 26.7 - -
02/11:30pm SSE 41 51 - - - - - - - 26.7 997.2 -
02/11:20pm S 37 52 - - - - - - - 27.0 - -
02/11:18pm SSE 37 52 - - - - - - - 27.0 997.3 -
02/11:00pm SSE 39 45 - - - - - - - 26.9 997.3 -
02/10:30pm SE 33 42 - - - - - - - 26.0 997.5 -
02/10:08pm SSE 34 44 - - - - - - - 27.4 - -
02/10:07pm SSE 34 44 - - - - - - - 27.1 997.6 -
02/10:00pm SSE 36 43 - - - - - - - 28.4 997.3 -
02/09:56pm SSE 31 41 - - - - - - - 28.6 - -
02/09:54pm SSE 31 41 - - - - - - - 28.6 997.5 -
02/09:30pm SSE 33 40 - - - - - - - 28.1 997.6 -
02/09:05pm S 31 43 - - - - - - - 27.3 - -
02/09:03pm SSE 31 43 - - - - - - - 27.3 997.6 -
02/09:00pm SSE 30 37 - - - - - - - 27.7 997.6 -
02/08:41pm SSE 34 38 - - - - - - - 26.8 - -
02/08:30pm S 33 40 - - - - - - - 27.2 997.5 -
02/08:00pm S 33 39 - - - - - - - 26.9 997.4 -
02/07:57pm S 34 39 - - - - - - - 27.2 - -
02/07:30pm SSE 29 37 - - - - - - - 28.5 996.8 -
02/07:00pm SSE 27 34 - - - - - - - 26.8 997.0 -
02/06:49pm SE 30 40 - - - - - - - 25.1 - -
02/06:47pm S 30 40 - - - - - - - 25.1 996.7 -
02/06:45pm S 30 37 - - - - - - - 26.0 996.7 -
02/06:30pm SSW 29 34 - - - - - - - 26.5 996.3 -
02/06:00pm S 31 38 - - - - - - - 27.4 996.1 -
02/05:30pm S 29 35 - - - - - - - 27.6 995.8 -
02/05:00pm SSE 32 38 - - - - - - - 27.8 995.6 -
02/04:30pm S 31 37 - - - - - - - 27.4 995.2 -
02/04:00pm S 33 40 - - - - - - - 26.3 995.2 -
02/03:30pm SSE 37 43 - - - - - - - 27.3 995.1 -
02/03:03pm SSE 35 45 - - - - - - - 26.5 - -
02/03:00pm SSE 35 42 - - - - - - - 27.1 994.8 -
02/02:30pm SSE 36 44 - - - - - - - 25.5 995.4 -
02/02:00pm SSE 37 49 - - - - - - - 26.3 995.5 -
02/01:51pm SSE 36 49 - - - - - - - 26.3 - -
02/01:49pm SSE 36 49 - - - - - - - 26.3 995.2 -
02/01:30pm SSE 36 42 - - - - - - - 26.3 995.4 -
02/01:22pm S 35 45 - - - - - - - 26.0 - -
02/01:20pm SSE 35 45 - - - - - - - 26.0 995.5 -
02/01:00pm SSE 39 48 - - - - - - - 25.1 995.5 -
02/12:34pm SSE 42 52 - - - - - - - 26.3 - -
02/12:32pm SSE 42 52 - - - - - - - 26.3 995.8 -
02/12:30pm SSE 43 52 - - - - - - - 26.8 995.7 -
02/12:00pm SSE 41 51 - - - - - - - 25.3 995.7 -
02/11:33am S 42 53 - - - - - - - 26.1 - -
02/11:31am SSE 42 53 - - - - - - - 26.1 995.4 -
02/11:30am SSE 41 50 - - - - - - - 26.4 995.4 -
02/11:00am SSE 42 52 - - - - - - - 26.5 995.5 -
02/10:31am SSE 44 54 - - - - - - - 25.4 - -
02/10:30am SSE 44 54 - - - - - - - 25.2 995.2 -
02/10:00am S 44 56 - - - - - - - 25.2 995.5 -
02/09:30am SSE 42 52 - - - - - - - 26.2 995.4 -
02/09:17am SSE 42 54 - - - - - - - 25.3 - -
02/09:02am SSE 40 50 - - - - - - - 25.9 994.8 -
02/09:00am SSE 40 49 - - - - - - - 25.9 994.8 -
02/08:34am S 44 54 - - - - - - - 25.9 - -
02/08:32am S 44 54 - - - - - - - 25.9 994.3 -
02/08:30am S 45 54 - - - - - - - 26.0 994.1 -
02/08:00am SSE 46 58 - - - - - - - 25.4 993.4 -
02/07:30am SSE 47 58 - - - - - - - 26.0 992.5 -
02/07:00am SSE 45 55 - - - - - - - 27.1 991.7 -
02/06:30am SSE 44 55 - - - - - - - 27.0 991.1 -
02/06:00am SSE 47 59 - - - - - - - 26.9 990.2 -
02/05:30am SSE 48 59 - - - - - - - 26.3 988.9 -
02/05:01am SSE 45 55 - - - - - - - 27.5 - -
02/05:00am SSE 44 54 - - - - - - - 27.4 988.9 -
02/04:30am SE 45 55 - - - - - - - 26.5 987.3 -
02/04:08am SSE 45 55 - - - - - - - 27.2 - -
02/04:06am SSE 45 55 - - - - - - - 27.2 986.1 -
02/04:00am SE 45 54 - - - - - - - 26.8 985.6 -
02/03:54am SSE 44 49 - - - - - - - 27.2 - -
02/03:52am SE 41 49 - - - - - - - 27.2 985.1 -
02/03:37am SE 32 42 - - - - - - - 27.7 - -
02/03:35am SE 32 42 - - - - - - - 27.7 984.6 -
02/03:30am SE 31 38 - - - - - - - 27.7 984.5 -
02/03:18am SE 28 39 - - - - - - - 27.4 - -
02/03:16am SE 28 39 - - - - - - - 27.4 983.9 -
02/03:14am SE 26 35 - - - - - - - 27.1 984.0 -
02/03:00am SE 22 25 - - - - - - - 27.6 984.7 -
02/02:42am SE 22 26 - - - - - - - 27.8 - -
02/02:41am SE 20 28 - - - - - - - 27.5 984.7 -

Other formats

Comma delimited format used in spreadsheet applications
http://www.bom.gov.au/fwo/IDQ60701/IDQ60701.95288.axf

JavaScript Object Notation format (JSON) in row-major order
http://www.bom.gov.au/fwo/IDQ60701/IDQ60701.95288.json

Data quality

Most of these data are generated automatically and are frequently updated. Quality checks on data are not normally performed. It is possible for incorrect values to appear. Refer to information at About Latest Weather Observations and please check the disclaimer before using these data.